Liverpool Express — DDSD2 — position and weather

sailwx.info

Track history (hours):
 
Tides and Currents Weather Stations Pressure Air Temp Water Temp Dewpoint Dewpoint Depression Visibility Wind Speed Wind Dir Waves Ship Positions

Liverpool Express

Last reported at 2017-Nov-22 22:52 UTC. Time now 2017-Nov-24 04:08 UTC.
Position N 39°10' E 025°39'.

Length 281 m; draft 10 m.

Type: Ship. MMSI: 218025000.

Date/timePositionNaut miles runAvg speedWind from/ knotsBaromVisibWave heightAir tempDewpointWater temp
2017-Nov-22 22:52N 39°10' E 025°39'1016.1
2017-Nov-22 22:16N 39°20' E 025°41'  
2017-Nov-19 21:09N 37°37' E 023°52'320.2
2017-Nov-19 21:00N 37°38' E 023°49'918.5
2017-Nov-19 20:30N 37°44' E 023°40'918.3
2017-Nov-19 20:00N 37°53' E 023°37'4 7.8
2017-Nov-19 19:28N 37°57' E 023°36'0 0.0
2017-Nov-19 18:58N 37°57' E 023°36'0 0.0
2017-Nov-19 18:28N 37°57' E 023°36'0 0.0
2017-Nov-19 17:58N 37°57' E 023°36'0 0.0
2017-Nov-19 17:28N 37°57' E 023°36'0 0.0
2017-Nov-19 16:58N 37°57' E 023°36'0 0.0
2017-Nov-19 16:28N 37°57' E 023°36'0 0.0
2017-Nov-19 15:58N 37°57' E 023°36'0 0.0
2017-Nov-19 15:28N 37°57' E 023°36'0 0.0
2017-Nov-19 15:00N 37°57' E 023°36'0 0.0
2017-Nov-19 14:30N 37°57' E 023°36'0 0.0
2017-Nov-19 14:00N 37°57' E 023°36'0 0.0
2017-Nov-19 13:27N 37°57' E 023°36'0 0.0
2017-Nov-19 13:01N 37°57' E 023°36'0 0.0
2017-Nov-19 12:31N 37°57' E 023°36'0 0.0
2017-Nov-19 12:01N 37°57' E 023°36'0 0.0
2017-Nov-19 11:27N 37°57' E 023°36'0 0.0
2017-Nov-19 11:00N 37°57' E 023°36'0 0.0
2017-Nov-19 10:30N 37°57' E 023°36'0 0.0
2017-Nov-19 10:00N 37°57' E 023°36'0 0.0
2017-Nov-19 09:30N 37°57' E 023°36'0 0.0
2017-Nov-19 08:59N 37°57' E 023°36'0 0.0
2017-Nov-19 08:30N 37°57' E 023°36'0 0.0
2017-Nov-19 08:00N 37°57' E 023°36'0 0.0
2017-Nov-19 07:28N 37°57' E 023°36'0 0.0
2017-Nov-19 06:58N 37°57' E 023°36'0 0.0
2017-Nov-19 06:28N 37°57' E 023°36'0 0.0
2017-Nov-19 05:58N 37°57' E 023°36'0 0.0
2017-Nov-19 05:28N 37°57' E 023°36'0 0.0
2017-Nov-19 04:58N 37°57' E 023°36'0 0.0
2017-Nov-19 04:28N 37°57' E 023°36'0 0.0
2017-Nov-19 03:58N 37°57' E 023°36'0 0.0
2017-Nov-19 03:28N 37°57' E 023°36'0 0.0
2017-Nov-19 02:58N 37°57' E 023°36'0 0.0
2017-Nov-19 02:28N 37°57' E 023°36'0 0.0
2017-Nov-19 01:55N 37°57' E 023°36'0 0.0
2017-Nov-19 01:28N 37°57' E 023°36'0 0.0
2017-Nov-19 00:58N 37°57' E 023°36'0 0.0
2017-Nov-19 00:28N 37°57' E 023°36'0 0.0
2017-Nov-18 23:58N 37°57' E 023°36'0 0.0
2017-Nov-18 23:28N 37°57' E 023°36'0 0.0
2017-Nov-18 22:58N 37°57' E 023°36'0 0.0
2017-Nov-18 22:30N 37°57' E 023°36'1 2.0
2017-Nov-18 22:00N 37°56' E 023°36'3 5.9
2017-Nov-18 21:30N 37°54' E 023°35'0 0.4
2017-Nov-18 21:00N 37°54' E 023°35'0 0.2
2017-Nov-18 20:30N 37°54' E 023°35'0 0.2
2017-Nov-18 20:00N 37°53' E 023°36'0 0.5
2017-Nov-18 19:30N 37°54' E 023°36'1 1.5
2017-Nov-18 19:00N 37°54' E 023°36'3 6.8
2017-Nov-18 18:30N 37°52' E 023°38'611.8
2017-Nov-18 18:00N 37°46' E 023°42'815.6
2017-Nov-18 17:31N 37°39' E 023°45'1018.1
2017-Nov-18 16:58N 37°29' E 023°45'918.1
2017-Nov-18 16:29N 37°20' E 023°44'42415.8
2017-Nov-17 13:37N 36°23' E 014°59'218.7
2017-Nov-17 13:30N 36°23' E 014°56'918.6
2017-Nov-17 13:00N 36°24' E 014°45'918.4
2017-Nov-17 12:30N 36°26' E 014°33'918.9
2017-Nov-17 12:00N 36°30' E 014°23'918.6
2017-Nov-17 11:30N 36°34' E 014°12'1018.5
2017-Nov-17 10:58N 36°40' E 014°02'1018.8
2017-Nov-17 10:27N 36°46' E 013°52'819.0
2017-Nov-17 10:00N 36°50' E 013°43'1218.7
2017-Nov-17 09:23N 36°56' E 013°31'22719.2
2017-Nov-16 21:35N 38°56' E 009°27'219.1
2017-Nov-16 21:30N 38°56' E 009°25'919.1
2017-Nov-16 21:00N 39°02' E 009°15'916.8
2017-Nov-16 20:29N 39°07' E 009°07'5 9.2
2017-Nov-16 20:00N 39°12' E 009°06'2 3.6
2017-Nov-16 19:30N 39°13' E 009°04'0 0.1
2017-Nov-16 18:58N 39°13' E 009°04'0 0.0
2017-Nov-16 18:28N 39°13' E 009°04'0 0.0
2017-Nov-16 17:58N 39°13' E 009°04'0 0.0
2017-Nov-16 17:28N 39°13' E 009°04'0 0.0
2017-Nov-16 16:58N 39°13' E 009°04'0 0.0
2017-Nov-16 16:28N 39°13' E 009°04'0 0.0
2017-Nov-16 15:58N 39°13' E 009°04'0 0.0
2017-Nov-16 15:28N 39°13' E 009°04'0 0.0
2017-Nov-16 14:58N 39°13' E 009°04'0 0.0
2017-Nov-16 14:28N 39°13' E 009°04'0 0.0
2017-Nov-16 13:59N 39°13' E 009°04'0 0.0
2017-Nov-16 13:29N 39°13' E 009°04'0 0.0
2017-Nov-16 12:59N 39°13' E 009°04'0 0.0
2017-Nov-16 12:29N 39°13' E 009°04'0 0.0
2017-Nov-16 11:59N 39°13' E 009°04'0 0.0
2017-Nov-16 11:29N 39°13' E 009°04'0 0.0
2017-Nov-16 10:59N 39°13' E 009°04'0 0.0
2017-Nov-16 10:30N 39°13' E 009°04'0 0.0
2017-Nov-16 10:00N 39°13' E 009°04'0 0.0
2017-Nov-16 09:30N 39°13' E 009°04'0 0.1
2017-Nov-16 09:00N 39°13' E 009°04'0 0.0
2017-Nov-16 08:30N 39°13' E 009°04'0 0.0
2017-Nov-16 07:55N 39°13' E 009°04'0 0.0
2017-Nov-16 07:28N 39°13' E 009°04'0 0.0
2017-Nov-16 06:59N 39°13' E 009°04'0 0.0
2017-Nov-16 06:29N 39°13' E 009°04'0 0.0
2017-Nov-16 05:59N 39°13' E 009°04'0 0.0
2017-Nov-16 05:29N 39°13' E 009°04'0 0.0
2017-Nov-16 04:59N 39°13' E 009°04'2 3.3
2017-Nov-16 04:30N 39°12' E 009°06'4 7.3
2017-Nov-16 04:00N 39°08' E 009°06'5 9.7
2017-Nov-16 03:30N 39°03' E 009°07'510.8
2017-Nov-16 03:00N 38°58' E 009°05'612.6
2017-Nov-16 02:30N 38°53' E 009°01'713.1
2017-Nov-16 02:00N 38°47' E 008°57'713.4
2017-Nov-16 01:30N 38°41' E 008°53'712.8
2017-Nov-16 00:59N 38°38' E 008°45'613.2
2017-Nov-16 00:30N 38°36' E 008°38'66613.3
2017-Nov-13 22:28N 36°00' W 004°57'817.6
2017-Nov-13 22:00N 35°60' W 005°07'25912.2
2017-Nov-13 00:47N 37°60' W 009°54'413.8
2017-Nov-13 00:28N 38°04' W 009°56'1613.8
2017-Nov-12 23:16N 38°20' W 009°59'414.0
2017-Nov-12 22:59N 38°24' W 010°00'  
Track history (hours):
 
Tides and Currents Weather Stations Pressure Air Temp Water Temp Dewpoint Dewpoint Depression Visibility Wind Speed Wind Dir Waves Ship Positions

Liverpool Express

Last reported at 2017-Nov-22 22:52 UTC. Time now 2017-Nov-24 04:08 UTC.
Position N 39°10' E 025°39'.

Length 281 m; draft 10 m.

Type: Ship. MMSI: 218025000.

Date/timePositionNaut miles runAvg speedWind from/ knotsBaromVisibWave heightAir tempDewpointWater temp
2017-Nov-22 22:52N 39°10' E 025°39'1016.1
2017-Nov-22 22:16N 39°20' E 025°41'  
2017-Nov-19 21:09N 37°37' E 023°52'320.2
2017-Nov-19 21:00N 37°38' E 023°49'918.5
2017-Nov-19 20:30N 37°44' E 023°40'918.3
2017-Nov-19 20:00N 37°53' E 023°37'4 7.8
2017-Nov-19 19:28N 37°57' E 023°36'0 0.0
2017-Nov-19 18:58N 37°57' E 023°36'0 0.0
2017-Nov-19 18:28N 37°57' E 023°36'0 0.0
2017-Nov-19 17:58N 37°57' E 023°36'0 0.0
2017-Nov-19 17:28N 37°57' E 023°36'0 0.0
2017-Nov-19 16:58N 37°57' E 023°36'0 0.0
2017-Nov-19 16:28N 37°57' E 023°36'0 0.0
2017-Nov-19 15:58N 37°57' E 023°36'0 0.0
2017-Nov-19 15:28N 37°57' E 023°36'0 0.0
2017-Nov-19 15:00N 37°57' E 023°36'0 0.0
2017-Nov-19 14:30N 37°57' E 023°36'0 0.0
2017-Nov-19 14:00N 37°57' E 023°36'0 0.0
2017-Nov-19 13:27N 37°57' E 023°36'0 0.0
2017-Nov-19 13:01N 37°57' E 023°36'0 0.0
2017-Nov-19 12:31N 37°57' E 023°36'0 0.0
2017-Nov-19 12:01N 37°57' E 023°36'0 0.0
2017-Nov-19 11:27N 37°57' E 023°36'0 0.0
2017-Nov-19 11:00N 37°57' E 023°36'0 0.0
2017-Nov-19 10:30N 37°57' E 023°36'0 0.0
2017-Nov-19 10:00N 37°57' E 023°36'0 0.0
2017-Nov-19 09:30N 37°57' E 023°36'0 0.0
2017-Nov-19 08:59N 37°57' E 023°36'0 0.0
2017-Nov-19 08:30N 37°57' E 023°36'0 0.0
2017-Nov-19 08:00N 37°57' E 023°36'0 0.0
2017-Nov-19 07:28N 37°57' E 023°36'0 0.0
2017-Nov-19 06:58N 37°57' E 023°36'0 0.0
2017-Nov-19 06:28N 37°57' E 023°36'0 0.0
2017-Nov-19 05:58N 37°57' E 023°36'0 0.0
2017-Nov-19 05:28N 37°57' E 023°36'0 0.0
2017-Nov-19 04:58N 37°57' E 023°36'0 0.0
2017-Nov-19 04:28N 37°57' E 023°36'0 0.0
2017-Nov-19 03:58N 37°57' E 023°36'0 0.0
2017-Nov-19 03:28N 37°57' E 023°36'0 0.0
2017-Nov-19 02:58N 37°57' E 023°36'0 0.0
2017-Nov-19 02:28N 37°57' E 023°36'0 0.0
2017-Nov-19 01:55N 37°57' E 023°36'0 0.0
2017-Nov-19 01:28N 37°57' E 023°36'0 0.0
2017-Nov-19 00:58N 37°57' E 023°36'0 0.0
2017-Nov-19 00:28N 37°57' E 023°36'0 0.0
2017-Nov-18 23:58N 37°57' E 023°36'0 0.0
2017-Nov-18 23:28N 37°57' E 023°36'0 0.0
2017-Nov-18 22:58N 37°57' E 023°36'0 0.0
2017-Nov-18 22:30N 37°57' E 023°36'1 2.0
2017-Nov-18 22:00N 37°56' E 023°36'3 5.9
2017-Nov-18 21:30N 37°54' E 023°35'0 0.4
2017-Nov-18 21:00N 37°54' E 023°35'0 0.2
2017-Nov-18 20:30N 37°54' E 023°35'0 0.2
2017-Nov-18 20:00N 37°53' E 023°36'0 0.5
2017-Nov-18 19:30N 37°54' E 023°36'1 1.5
2017-Nov-18 19:00N 37°54' E 023°36'3 6.8
2017-Nov-18 18:30N 37°52' E 023°38'611.8
2017-Nov-18 18:00N 37°46' E 023°42'815.6
2017-Nov-18 17:31N 37°39' E 023°45'1018.1
2017-Nov-18 16:58N 37°29' E 023°45'918.1
2017-Nov-18 16:29N 37°20' E 023°44'42415.8
2017-Nov-17 13:37N 36°23' E 014°59'218.7
2017-Nov-17 13:30N 36°23' E 014°56'918.6
2017-Nov-17 13:00N 36°24' E 014°45'918.4
2017-Nov-17 12:30N 36°26' E 014°33'918.9
2017-Nov-17 12:00N 36°30' E 014°23'918.6
2017-Nov-17 11:30N 36°34' E 014°12'1018.5
2017-Nov-17 10:58N 36°40' E 014°02'1018.8
2017-Nov-17 10:27N 36°46' E 013°52'819.0
2017-Nov-17 10:00N 36°50' E 013°43'1218.7
2017-Nov-17 09:23N 36°56' E 013°31'22719.2
2017-Nov-16 21:35N 38°56' E 009°27'219.1
2017-Nov-16 21:30N 38°56' E 009°25'919.1
2017-Nov-16 21:00N 39°02' E 009°15'916.8
2017-Nov-16 20:29N 39°07' E 009°07'5 9.2
2017-Nov-16 20:00N 39°12' E 009°06'2 3.6
2017-Nov-16 19:30N 39°13' E 009°04'0 0.1
2017-Nov-16 18:58N 39°13' E 009°04'0 0.0
2017-Nov-16 18:28N 39°13' E 009°04'0 0.0
2017-Nov-16 17:58N 39°13' E 009°04'0 0.0
2017-Nov-16 17:28N 39°13' E 009°04'0 0.0
2017-Nov-16 16:58N 39°13' E 009°04'0 0.0
2017-Nov-16 16:28N 39°13' E 009°04'0 0.0
2017-Nov-16 15:58N 39°13' E 009°04'0 0.0
2017-Nov-16 15:28N 39°13' E 009°04'0 0.0
2017-Nov-16 14:58N 39°13' E 009°04'0 0.0
2017-Nov-16 14:28N 39°13' E 009°04'0 0.0
2017-Nov-16 13:59N 39°13' E 009°04'0 0.0
2017-Nov-16 13:29N 39°13' E 009°04'0 0.0
2017-Nov-16 12:59N 39°13' E 009°04'0 0.0
2017-Nov-16 12:29N 39°13' E 009°04'0 0.0
2017-Nov-16 11:59N 39°13' E 009°04'0 0.0
2017-Nov-16 11:29N 39°13' E 009°04'0 0.0
2017-Nov-16 10:59N 39°13' E 009°04'0 0.0
2017-Nov-16 10:30N 39°13' E 009°04'0 0.0
2017-Nov-16 10:00N 39°13' E 009°04'0 0.0
2017-Nov-16 09:30N 39°13' E 009°04'0 0.1
2017-Nov-16 09:00N 39°13' E 009°04'0 0.0
2017-Nov-16 08:30N 39°13' E 009°04'0 0.0
2017-Nov-16 07:55N 39°13' E 009°04'0 0.0
2017-Nov-16 07:28N 39°13' E 009°04'0 0.0
2017-Nov-16 06:59N 39°13' E 009°04'0 0.0
2017-Nov-16 06:29N 39°13' E 009°04'0 0.0
2017-Nov-16 05:59N 39°13' E 009°04'0 0.0
2017-Nov-16 05:29N 39°13' E 009°04'0 0.0
2017-Nov-16 04:59N 39°13' E 009°04'2 3.3
2017-Nov-16 04:30N 39°12' E 009°06'4 7.3
2017-Nov-16 04:00N 39°08' E 009°06'5 9.7
2017-Nov-16 03:30N 39°03' E 009°07'510.8
2017-Nov-16 03:00N 38°58' E 009°05'612.6
2017-Nov-16 02:30N 38°53' E 009°01'713.1
2017-Nov-16 02:00N 38°47' E 008°57'713.4
2017-Nov-16 01:30N 38°41' E 008°53'712.8
2017-Nov-16 00:59N 38°38' E 008°45'613.2
2017-Nov-16 00:30N 38°36' E 008°38'66613.3
2017-Nov-13 22:28N 36°00' W 004°57'817.6
2017-Nov-13 22:00N 35°60' W 005°07'25912.2
2017-Nov-13 00:47N 37°60' W 009°54'413.8
2017-Nov-13 00:28N 38°04' W 009°56'1613.8
2017-Nov-12 23:16N 38°20' W 009°59'414.0
2017-Nov-12 22:59N 38°24' W 010°00'  

Dump ship's entire track history